createdAt,value
2023-01-28T00:01:39.408Z,28.90
2023-01-28T00:04:06.324Z,30.50
2023-01-28T00:06:33.159Z,27.73
2023-01-28T00:08:59.927Z,30.33
2023-01-28T00:11:26.728Z,30.05
2023-01-28T00:13:54.511Z,28.10
2023-01-28T00:16:26.762Z,31.33
2023-01-28T00:18:54.432Z,30.45
2023-01-28T00:21:21.217Z,33.05
2023-01-28T00:23:54.799Z,27.27
2023-01-28T00:26:23.608Z,29.73
2023-01-28T00:28:50.398Z,26.30
2023-01-28T00:31:18.876Z,26.75
2023-01-28T00:33:47.326Z,25.27
2023-01-28T00:36:14.884Z,24.55
2023-01-28T00:38:42.690Z,28.42
2023-01-28T00:41:15.689Z,23.48
2023-01-28T00:43:43.613Z,26.27
2023-01-28T00:46:12.330Z,26.83
2023-01-28T00:48:40.426Z,25.98
2023-01-28T00:51:08.246Z,26.13
2023-01-28T00:53:36.452Z,26.85
2023-01-28T00:56:07.314Z,26.17
2023-01-28T00:58:34.885Z,25.20
2023-01-28T01:01:12.253Z,25.98
2023-01-28T01:03:39.605Z,27.25
2023-01-28T01:06:07.093Z,24.42
2023-01-28T01:08:40.075Z,26.00
2023-01-28T01:11:07.616Z,26.55
2023-01-28T01:13:37.535Z,30.13
2023-01-28T01:16:13.571Z,29.67
2023-01-28T01:18:43.393Z,27.38
2023-01-28T01:21:12.961Z,25.73
2023-01-28T01:23:42.462Z,29.60
2023-01-28T01:26:09.635Z,30.77
2023-01-28T01:28:37.079Z,28.02
2023-01-28T01:31:15.955Z,27.42
2023-01-28T01:33:44.509Z,32.08
2023-01-28T01:36:12.941Z,30.40
2023-01-28T01:38:41.047Z,28.08
2023-01-28T01:41:08.857Z,32.88
2023-01-28T01:43:55.144Z,27.23
2023-01-28T01:46:33.439Z,31.45
2023-01-28T01:49:29.657Z,29.40
2023-01-28T01:52:07.086Z,26.20
2023-01-28T01:54:35.832Z,28.40
2023-01-28T01:57:03.540Z,31.30
2023-01-28T01:59:33.187Z,27.85
2023-01-28T02:02:07.706Z,25.48
2023-01-28T02:04:42.077Z,31.10
2023-01-28T02:07:12.544Z,29.85
2023-01-28T02:09:41.500Z,28.25
2023-01-28T02:12:11.374Z,29.98
2023-01-28T02:14:46.976Z,30.48
2023-01-28T02:17:14.247Z,30.33
2023-01-28T02:19:48.331Z,26.90
2023-01-28T02:22:51.943Z,30.50
2023-01-28T02:25:37.474Z,28.58
2023-01-28T02:28:18.087Z,26.42
2023-01-28T02:30:53.514Z,30.85
2023-01-28T02:33:49.120Z,29.08
2023-01-28T02:36:15.775Z,26.25
2023-01-28T02:38:48.057Z,32.33
2023-01-28T02:41:30.020Z,27.95
2023-01-28T02:43:56.731Z,31.60
2023-01-28T02:46:44.700Z,28.67
2023-01-28T02:49:17.438Z,30.45
2023-01-28T02:51:50.503Z,29.58
2023-01-28T02:54:28.329Z,30.08
2023-01-28T02:57:18.062Z,30.17
2023-01-28T03:00:01.754Z,29.17
2023-01-28T03:02:36.267Z,28.88
2023-01-28T03:05:09.370Z,34.13
2023-01-28T03:07:38.545Z,28.70
2023-01-28T03:10:10.393Z,30.05
2023-01-28T03:13:00.593Z,27.08
2023-01-28T03:15:54.131Z,32.42
2023-01-28T03:18:47.590Z,30.73
2023-01-28T03:21:44.911Z,31.02
2023-01-28T03:24:41.975Z,29.38
2023-01-28T03:27:42.925Z,29.33
2023-01-28T03:30:42.659Z,30.58
2023-01-28T03:33:28.901Z,34.25
2023-01-28T03:36:14.398Z,28.70
2023-01-28T03:38:42.899Z,28.75
2023-01-28T03:41:11.529Z,31.15
2023-01-28T03:43:38.409Z,28.83
2023-01-28T03:46:06.483Z,27.40
2023-01-28T03:48:33.351Z,32.05
2023-01-28T03:51:03.055Z,28.95
2023-01-28T03:53:29.933Z,32.33
2023-01-28T03:55:56.952Z,32.40
2023-01-28T03:58:46.477Z,33.03
2023-01-28T04:01:14.093Z,27.35
2023-01-28T04:03:40.837Z,28.13
2023-01-28T04:06:09.529Z,31.02
2023-01-28T04:08:36.319Z,33.67
2023-01-28T04:11:20.095Z,28.65
2023-01-28T04:13:47.912Z,29.80
2023-01-28T04:16:17.216Z,27.05
2023-01-28T04:18:44.909Z,28.60
2023-01-28T04:21:12.489Z,29.77
2023-01-28T04:23:39.363Z,33.00
2023-01-28T04:26:06.161Z,31.42
2023-01-28T04:28:32.975Z,29.98
2023-01-28T04:30:59.863Z,32.22
2023-01-28T04:33:26.667Z,28.58
2023-01-28T04:35:53.463Z,32.75
2023-01-28T04:38:20.339Z,33.25
2023-01-28T04:40:50.705Z,27.00
2023-01-28T04:43:18.079Z,29.33
2023-01-28T04:45:44.866Z,32.83
2023-01-28T04:48:11.674Z,29.30
2023-01-28T04:50:38.421Z,28.70
2023-01-28T04:53:05.146Z,29.95
2023-01-28T04:55:31.930Z,32.30
2023-01-28T04:57:58.680Z,30.75
2023-01-28T05:00:25.468Z,29.95
2023-01-28T05:02:52.217Z,29.02
2023-01-28T05:05:19.094Z,27.30
2023-01-28T05:07:51.860Z,26.73
2023-01-28T05:10:19.608Z,26.52
2023-01-28T05:12:48.127Z,29.67
2023-01-28T05:15:16.646Z,28.40
2023-01-28T05:17:44.199Z,29.67
2023-01-28T05:20:13.401Z,26.08
2023-01-28T05:22:40.680Z,28.45
2023-01-28T05:25:08.127Z,27.92
2023-01-28T05:27:34.903Z,22.35
2023-01-28T05:30:01.692Z,27.73
2023-01-28T05:32:28.523Z,30.35
2023-01-28T05:34:55.320Z,26.27
2023-01-28T05:37:22.101Z,23.73
2023-01-28T05:39:48.874Z,27.40
2023-01-28T05:42:15.833Z,28.85
2023-01-28T05:44:42.576Z,24.98
2023-01-28T05:47:09.305Z,25.60
2023-01-28T05:49:36.055Z,26.20
2023-01-28T05:52:02.893Z,28.13
2023-01-28T05:54:29.595Z,27.60
2023-01-28T05:56:56.363Z,25.30
2023-01-28T05:59:23.099Z,26.98
2023-01-28T06:01:49.842Z,30.60
2023-01-28T06:04:18.938Z,28.63
2023-01-28T06:06:46.270Z,25.13
2023-01-28T06:09:13.072Z,25.42
2023-01-28T06:11:39.839Z,27.90
2023-01-28T06:14:06.771Z,25.23
2023-01-28T06:16:33.600Z,27.98
2023-01-28T06:19:00.411Z,26.77
2023-01-28T06:21:29.910Z,24.88
2023-01-28T06:23:56.952Z,26.08
2023-01-28T06:26:23.874Z,25.23
2023-01-28T06:28:50.606Z,29.80
2023-01-28T06:31:17.319Z,24.42
2023-01-28T06:33:44.506Z,26.90
2023-01-28T06:36:11.253Z,25.55
2023-01-28T06:38:38.112Z,28.25
2023-01-28T06:41:05.095Z,24.33
2023-01-28T06:43:31.869Z,26.20
2023-01-28T06:45:59.125Z,27.60
2023-01-28T06:48:26.988Z,24.98
2023-01-28T06:50:54.113Z,28.83
2023-01-28T06:53:21.852Z,27.35
2023-01-28T06:55:49.187Z,24.23
2023-01-28T06:58:16.102Z,26.23
2023-01-28T07:00:42.824Z,28.67
2023-01-28T07:03:17.167Z,29.75
2023-01-28T07:05:43.997Z,27.08
2023-01-28T07:08:10.718Z,25.02
2023-01-28T07:10:37.482Z,24.35
2023-01-28T07:13:04.256Z,27.35
2023-01-28T07:15:31.096Z,24.65
2023-01-28T07:17:58.710Z,25.45
2023-01-28T07:20:26.343Z,24.13
2023-01-28T07:22:55.906Z,25.20
2023-01-28T07:25:22.650Z,27.17
2023-01-28T07:27:51.387Z,27.02
2023-01-28T07:30:19.378Z,28.40
2023-01-28T07:32:46.567Z,25.58
2023-01-28T07:35:13.598Z,25.23
2023-01-28T07:37:40.502Z,27.70
2023-01-28T07:40:08.163Z,25.17
2023-01-28T07:42:34.994Z,25.67
2023-01-28T07:45:01.980Z,27.75
2023-01-28T07:47:28.811Z,27.52
2023-01-28T07:49:55.599Z,26.20
2023-01-28T07:52:22.388Z,25.35
2023-01-28T07:54:49.124Z,23.23
2023-01-28T07:57:23.158Z,26.75
2023-01-28T07:59:53.836Z,28.77
2023-01-28T08:02:20.724Z,28.25
2023-01-28T08:04:47.663Z,26.23
2023-01-28T08:07:14.601Z,26.23
2023-01-28T08:09:41.413Z,20.92
2023-01-28T08:12:08.171Z,24.13
2023-01-28T08:14:35.033Z,25.15
2023-01-28T08:17:01.881Z,25.15
2023-01-28T08:19:28.676Z,27.23
2023-01-28T08:21:55.467Z,24.85
2023-01-28T08:24:22.232Z,25.58
2023-01-28T08:26:49.345Z,24.45
2023-01-28T08:29:16.201Z,25.10
2023-01-28T08:31:43.252Z,23.83
2023-01-28T08:34:10.134Z,23.73
2023-01-28T08:36:36.895Z,26.05
2023-01-28T08:39:03.843Z,22.85
2023-01-28T08:41:31.147Z,21.60
2023-01-28T08:43:58.380Z,23.70
2023-01-28T08:46:25.141Z,24.70
2023-01-28T08:48:51.953Z,23.15
2023-01-28T08:51:18.694Z,23.80
2023-01-28T08:53:45.461Z,22.10
2023-01-28T08:56:12.309Z,23.60
2023-01-28T08:58:39.048Z,23.00
2023-01-28T09:01:06.950Z,25.58
2023-01-28T09:03:34.136Z,26.00
2023-01-28T09:06:04.885Z,25.98
2023-01-28T09:08:32.249Z,24.75
2023-01-28T09:11:00.136Z,23.27
2023-01-28T09:13:27.321Z,22.67
2023-01-28T09:15:54.319Z,19.88
2023-01-28T09:18:21.270Z,20.13
2023-01-28T09:20:48.138Z,21.20
2023-01-28T09:23:15.213Z,21.85
2023-01-28T09:25:41.973Z,21.00
2023-01-28T09:28:08.990Z,21.98
2023-01-28T09:30:37.785Z,23.10
2023-01-28T09:33:05.254Z,25.50
2023-01-28T09:35:33.881Z,19.27
2023-01-28T09:38:00.669Z,26.25
2023-01-28T09:40:36.009Z,21.65
2023-01-28T09:43:25.910Z,21.45
2023-01-28T09:45:56.508Z,22.83
2023-01-28T09:48:30.841Z,26.17
2023-01-28T09:50:57.857Z,22.25
2023-01-28T09:53:24.605Z,21.55
2023-01-28T09:56:06.290Z,19.90
2023-01-28T09:58:33.124Z,19.40
2023-01-28T10:01:17.686Z,23.90
2023-01-28T10:03:59.425Z,23.58
2023-01-28T10:06:41.674Z,19.00
2023-01-28T10:09:17.412Z,21.90
2023-01-28T10:11:49.998Z,22.48
2023-01-28T10:14:37.499Z,21.40
2023-01-28T10:17:19.353Z,19.30
2023-01-28T10:20:03.310Z,18.67
2023-01-28T10:22:48.515Z,19.98
2023-01-28T10:25:24.785Z,18.05
2023-01-28T10:27:52.253Z,21.60
2023-01-28T10:30:25.698Z,19.25
2023-01-28T10:32:52.640Z,23.40
2023-01-28T10:35:20.483Z,21.10
2023-01-28T10:37:47.659Z,17.98
2023-01-28T10:40:17.380Z,20.40
2023-01-28T10:42:45.593Z,18.63
2023-01-28T10:45:18.193Z,21.58
2023-01-28T10:48:00.991Z,22.83
2023-01-28T10:50:29.710Z,23.52
2023-01-28T10:53:01.141Z,23.80
2023-01-28T10:55:51.919Z,20.83
2023-01-28T10:58:22.210Z,27.48
2023-01-28T11:01:01.315Z,21.83
2023-01-28T11:03:30.916Z,20.40
2023-01-28T11:05:59.048Z,20.42
2023-01-28T11:08:28.585Z,18.95
2023-01-28T11:10:57.253Z,22.35
2023-01-28T11:13:30.012Z,24.48
2023-01-28T11:16:14.703Z,23.63
2023-01-28T11:18:50.944Z,20.33
2023-01-28T11:21:27.430Z,21.45
2023-01-28T11:23:59.657Z,21.92
2023-01-28T11:28:55.557Z,19.63
2023-01-28T11:31:24.377Z,19.73
2023-01-28T11:33:57.768Z,27.38
2023-01-28T11:36:27.275Z,19.92
2023-01-28T11:39:00.371Z,20.60
2023-01-28T11:41:30.241Z,20.77
2023-01-28T11:43:58.964Z,23.23
2023-01-28T11:46:45.221Z,24.05
2023-01-28T11:49:30.318Z,23.40
2023-01-28T11:52:34.850Z,20.95
2023-01-28T11:55:21.641Z,20.70
2023-01-28T11:57:57.690Z,19.60
2023-01-28T12:00:58.317Z,16.35
2023-01-28T12:03:46.715Z,22.27
2023-01-28T12:06:36.101Z,18.50
2023-01-28T12:09:43.035Z,19.85
2023-01-28T12:12:34.455Z,17.05
2023-01-28T12:15:22.086Z,19.23
2023-01-28T12:18:13.807Z,21.88
2023-01-28T12:20:49.767Z,13.40
2023-01-28T12:24:10.320Z,17.98
2023-01-28T12:27:17.191Z,19.40
2023-01-28T12:29:53.409Z,22.45
2023-01-28T12:32:23.182Z,20.92
2023-01-28T12:35:06.893Z,20.08
2023-01-28T12:37:36.340Z,18.33
2023-01-28T12:40:08.794Z,19.73
2023-01-28T12:43:04.754Z,18.92
2023-01-28T12:45:40.863Z,20.45
2023-01-28T12:48:27.437Z,22.55
2023-01-28T12:51:04.999Z,19.02
2023-01-28T12:53:51.355Z,22.92
2023-01-28T12:56:19.827Z,25.15
2023-01-28T12:58:55.846Z,18.55
2023-01-28T13:01:29.463Z,19.63
2023-01-28T13:04:17.406Z,22.48
2023-01-28T13:06:47.001Z,22.20
2023-01-28T13:09:22.535Z,22.25
2023-01-28T13:11:51.925Z,22.15
2023-01-28T13:14:22.268Z,22.25
2023-01-28T13:16:49.063Z,21.88
2023-01-28T13:19:18.705Z,23.17
2023-01-28T13:21:49.565Z,19.42
2023-01-28T13:24:16.618Z,20.58
2023-01-28T13:26:47.691Z,16.77
2023-01-28T13:29:14.409Z,19.52
2023-01-28T13:31:46.608Z,21.20
2023-01-28T13:37:29.989Z,19.13
2023-01-28T13:40:02.746Z,19.65
2023-01-28T13:42:31.240Z,18.17
2023-01-28T13:45:17.098Z,15.27
2023-01-28T13:47:46.913Z,17.60
2023-01-28T13:50:18.733Z,16.17
2023-01-28T13:53:10.121Z,18.15
2023-01-28T13:55:44.559Z,18.02
2023-01-28T13:58:49.747Z,16.77
2023-01-28T14:01:37.581Z,17.80
2023-01-28T14:04:23.804Z,17.95
2023-01-28T14:07:12.453Z,21.83
2023-01-28T14:10:09.335Z,21.30
2023-01-28T14:13:00.659Z,17.75
2023-01-28T14:16:00.947Z,15.20
2023-01-28T14:18:36.798Z,17.00
2023-01-28T14:21:13.056Z,15.73
2023-01-28T14:23:45.920Z,16.90
2023-01-28T14:27:00.181Z,17.40
2023-01-28T14:29:29.594Z,17.23
2023-01-28T14:31:56.543Z,18.05
2023-01-28T14:34:28.612Z,14.95
2023-01-28T14:37:01.616Z,16.05
2023-01-28T14:39:31.404Z,19.60
2023-01-28T14:42:01.561Z,17.88
2023-01-28T14:44:36.769Z,14.18
2023-01-28T14:47:18.562Z,14.20
2023-01-28T14:50:05.694Z,14.15
2023-01-28T14:52:47.491Z,14.75
2023-01-28T14:55:38.012Z,19.27
2023-01-28T14:58:11.938Z,16.95
2023-01-28T15:00:39.721Z,17.13
2023-01-28T15:03:26.043Z,14.32
2023-01-28T15:06:26.487Z,17.23
2023-01-28T15:08:54.532Z,18.90
2023-01-28T15:11:24.969Z,21.10
2023-01-28T15:13:58.803Z,17.20
2023-01-28T15:16:31.464Z,19.10
2023-01-28T15:19:01.531Z,23.10
2023-01-28T15:21:30.046Z,19.42
2023-01-28T15:23:59.750Z,21.35
2023-01-28T15:26:29.056Z,19.45
2023-01-28T15:28:56.653Z,20.83
2023-01-28T15:31:26.453Z,18.55
2023-01-28T15:34:12.974Z,21.17
2023-01-28T15:36:40.220Z,20.05
2023-01-28T15:39:15.107Z,22.05
2023-01-28T15:41:47.452Z,23.42
2023-01-28T15:44:22.498Z,23.02
2023-01-28T15:46:49.324Z,25.08
2023-01-28T15:49:17.283Z,28.75
2023-01-28T15:51:51.126Z,24.75
2023-01-28T15:54:19.663Z,25.42
2023-01-28T15:56:46.486Z,22.52
2023-01-28T15:59:18.118Z,21.23
2023-01-28T16:01:44.914Z,26.40
2023-01-28T16:04:27.034Z,26.20
2023-01-28T16:06:56.346Z,20.20
2023-01-28T16:09:30.401Z,20.23
2023-01-28T16:12:06.676Z,26.80
2023-01-28T16:14:43.937Z,29.38
2023-01-28T16:17:17.163Z,25.60
2023-01-28T16:19:47.816Z,26.15
2023-01-28T16:22:27.368Z,25.33
2023-01-28T16:24:54.696Z,25.80
2023-01-28T16:27:27.022Z,24.80
2023-01-28T16:29:53.968Z,29.88
2023-01-28T16:32:38.826Z,27.42
2023-01-28T16:35:14.142Z,29.08
2023-01-28T16:37:42.343Z,28.08
2023-01-28T16:40:11.586Z,24.98
2023-01-28T16:42:38.374Z,26.08
2023-01-28T16:45:06.114Z,24.10
2023-01-28T16:47:32.909Z,24.52
2023-01-28T16:49:59.726Z,27.08
2023-01-28T16:52:26.593Z,25.85
2023-01-28T16:54:53.345Z,24.08
2023-01-28T16:57:21.468Z,23.60
2023-01-28T16:59:48.472Z,23.52
2023-01-28T17:02:17.903Z,27.33
2023-01-28T17:04:44.726Z,27.40
2023-01-28T17:07:11.618Z,24.92
2023-01-28T17:09:38.417Z,26.70
2023-01-28T17:12:05.620Z,24.23
2023-01-28T17:14:32.437Z,28.77
2023-01-28T17:16:59.277Z,29.25
2023-01-28T17:19:26.017Z,29.55
2023-01-28T17:21:52.869Z,26.45
2023-01-28T17:24:19.690Z,26.67
2023-01-28T17:26:47.561Z,30.30
2023-01-28T17:29:14.402Z,24.17
2023-01-28T17:31:41.176Z,25.48
2023-01-28T17:34:08.224Z,27.20
2023-01-28T17:36:35.209Z,27.33
2023-01-28T17:39:02.067Z,26.73
2023-01-28T17:41:28.880Z,26.63
2023-01-28T17:43:56.465Z,28.60
2023-01-28T17:46:24.807Z,27.98
2023-01-28T17:48:52.003Z,27.65
2023-01-28T17:51:19.073Z,31.52
2023-01-28T17:53:47.846Z,31.48
2023-01-28T17:56:19.283Z,29.13
2023-01-28T17:58:53.760Z,22.92
2023-01-28T18:01:21.508Z,26.45
2023-01-28T18:03:48.765Z,31.90
2023-01-28T18:06:15.853Z,29.45
2023-01-28T18:08:43.095Z,27.60
2023-01-28T18:11:12.264Z,27.85
2023-01-28T18:13:40.394Z,31.25
2023-01-28T18:16:09.233Z,26.00
2023-01-28T18:18:35.987Z,27.33
2023-01-28T18:21:05.740Z,30.45
2023-01-28T18:23:33.441Z,29.60
2023-01-28T18:26:02.533Z,29.88
2023-01-28T18:28:30.090Z,29.88
2023-01-28T18:31:04.154Z,32.65
2023-01-28T18:33:30.953Z,27.98
2023-01-28T18:35:57.698Z,27.90
2023-01-28T18:38:24.551Z,27.60
2023-01-28T18:40:55.906Z,26.90
2023-01-28T18:43:23.167Z,26.33
2023-01-28T18:45:52.176Z,30.58
2023-01-28T18:48:19.423Z,26.63
2023-01-28T18:50:58.437Z,28.92
2023-01-28T18:53:26.247Z,25.23
2023-01-28T18:55:53.661Z,30.45
2023-01-28T18:58:20.382Z,31.42
2023-01-28T19:00:47.222Z,31.42
2023-01-28T19:03:13.996Z,28.13
2023-01-28T19:05:41.657Z,30.50
2023-01-28T19:08:10.281Z,28.10
2023-01-28T19:10:37.253Z,29.25
2023-01-28T19:13:04.109Z,30.60
2023-01-28T19:15:31.216Z,28.08
2023-01-28T19:17:58.224Z,33.60
2023-01-28T19:20:25.279Z,27.02
2023-01-28T19:22:52.042Z,30.58
2023-01-28T19:25:19.096Z,28.40
2023-01-28T19:27:45.876Z,28.63
2023-01-28T19:30:12.745Z,26.67
2023-01-28T19:32:39.483Z,31.52
2023-01-28T19:35:07.001Z,30.83
2023-01-28T19:37:34.468Z,28.40
2023-01-28T19:40:01.289Z,30.17
2023-01-28T19:42:28.012Z,28.17
2023-01-28T19:44:54.773Z,29.95
2023-01-28T19:47:21.530Z,27.83
2023-01-28T19:49:48.273Z,32.72
2023-01-28T19:52:15.041Z,30.88
2023-01-28T19:54:41.846Z,30.25
2023-01-28T19:57:08.591Z,32.25
2023-01-28T19:59:35.322Z,32.38
2023-01-28T20:02:02.124Z,31.15
2023-01-28T20:04:28.910Z,31.63
2023-01-28T20:06:55.637Z,38.92
2023-01-28T20:09:22.681Z,30.83
2023-01-28T20:11:49.508Z,32.80
2023-01-28T20:14:18.035Z,34.28
2023-01-28T20:16:44.802Z,32.97
2023-01-28T20:19:16.541Z,30.38
2023-01-28T20:21:43.736Z,32.53
2023-01-28T20:24:12.299Z,29.40
2023-01-28T20:26:42.667Z,33.90
2023-01-28T20:29:12.410Z,28.17
2023-01-28T20:31:41.076Z,31.88
2023-01-28T20:34:08.592Z,29.33
2023-01-28T20:36:35.524Z,30.95
2023-01-28T20:39:02.323Z,30.70
2023-01-28T20:41:29.097Z,31.52
2023-01-28T20:43:56.617Z,32.78
2023-01-28T20:46:27.684Z,34.25
2023-01-28T20:48:56.199Z,29.13
2023-01-28T20:51:26.089Z,30.88
2023-01-28T20:53:54.072Z,34.42
2023-01-28T20:56:23.638Z,35.97
2023-01-28T20:58:55.964Z,31.90
2023-01-28T21:01:25.588Z,33.25
2023-01-28T21:03:52.871Z,36.88
2023-01-28T21:06:19.886Z,35.03
2023-01-28T21:08:46.782Z,33.72
2023-01-28T21:11:13.976Z,53.25
2023-01-28T21:13:41.216Z,41.17
2023-01-28T21:16:08.204Z,37.08
2023-01-28T21:18:35.065Z,36.08
2023-01-28T21:21:22.556Z,39.75
2023-01-28T21:23:49.609Z,34.80
2023-01-28T21:26:17.289Z,30.60
2023-01-28T21:28:44.698Z,35.47
2023-01-28T21:31:15.541Z,29.02
2023-01-28T21:33:42.593Z,25.05
2023-01-28T21:36:11.763Z,32.35
2023-01-28T21:38:38.987Z,32.80
2023-01-28T21:41:06.524Z,35.95
2023-01-28T21:43:33.349Z,32.67
2023-01-28T21:46:00.303Z,34.33
2023-01-28T21:48:28.322Z,33.85
2023-01-28T21:51:14.019Z,36.67
2023-01-28T21:53:41.964Z,29.58
2023-01-28T21:56:09.901Z,34.10
2023-01-28T21:58:56.222Z,35.55
2023-01-28T22:01:23.428Z,34.95
2023-01-28T22:03:50.269Z,29.58
2023-01-28T22:06:17.327Z,25.23
2023-01-28T22:08:44.100Z,29.77
2023-01-28T22:11:11.747Z,30.60
2023-01-28T22:13:38.538Z,31.10
2023-01-28T22:16:05.960Z,34.80
2023-01-28T22:18:33.060Z,29.17
2023-01-28T22:21:06.039Z,32.72
2023-01-28T22:23:33.886Z,25.25
2023-01-28T22:26:02.092Z,24.50
2023-01-28T22:28:29.238Z,30.65
2023-01-28T22:31:05.983Z,25.52
2023-01-28T22:33:32.859Z,24.77
2023-01-28T22:35:59.650Z,28.85
2023-01-28T22:38:26.462Z,28.42
2023-01-28T22:40:53.207Z,28.23
2023-01-28T22:43:19.998Z,23.75
2023-01-28T22:45:46.810Z,25.52
2023-01-28T22:48:13.691Z,27.65
2023-01-28T22:50:40.506Z,28.70
2023-01-28T22:53:07.247Z,29.48
2023-01-28T22:55:34.005Z,28.73
2023-01-28T22:58:00.779Z,28.55
2023-01-28T23:00:28.561Z,31.10
2023-01-28T23:02:55.549Z,30.23
2023-01-28T23:05:22.287Z,25.48
2023-01-28T23:07:49.081Z,27.35
2023-01-28T23:10:16.196Z,29.98
2023-01-28T23:12:44.149Z,28.58
2023-01-28T23:15:29.416Z,27.60
2023-01-28T23:18:15.068Z,26.65
2023-01-28T23:21:00.432Z,26.25
2023-01-28T23:23:46.072Z,26.67
2023-01-28T23:26:12.800Z,28.30
2023-01-28T23:28:39.759Z,25.50
2023-01-28T23:31:06.646Z,25.58
2023-01-28T23:33:33.413Z,29.35
2023-01-28T23:36:00.192Z,30.42
2023-01-28T23:38:27.400Z,30.23
2023-01-28T23:40:54.912Z,25.23
2023-01-28T23:43:22.261Z,28.30
2023-01-28T23:45:48.975Z,25.17
2023-01-28T23:48:15.766Z,22.02
2023-01-28T23:50:42.507Z,22.48
2023-01-28T23:53:13.211Z,22.98
2023-01-28T23:55:40.680Z,22.73
2023-01-28T23:58:07.493Z,20.20
